Time,TemperatureF,DewpointF,PressureIn,WindDirection,WindDirectionDegrees,WindSpeedMPH,WindSpeedGustMPH,Humidity,HourlyPrecipIn,Conditions,Clouds,dailyrainin,SoftwareType,DateUTC
2013-02-01 00:05:00,33.5,19.4,29.55,North,0,0.0,3.0,55,-99.99,,,-99.99,PWS SA v1.10,2013-02-01 05:05:00,
2013-02-01 00:10:00,33.0,18.6,29.54,WSW,252,5.1,8.0,55,-99.99,,,-99.99,PWS SA v1.10,2013-02-01 05:10:00,
2013-02-01 00:15:00,33.7,19.8,29.54,North,0,0.0,8.0,57,-99.99,,,-99.99,PWS SA v1.10,2013-02-01 05:15:00,
2013-02-01 00:25:00,33.3,19.6,29.55,North,0,0.0,8.0,57,-99.99,,,-99.99,PWS SA v1.10,2013-02-01 05:25:00,
2013-02-01 00:30:00,33.4,18.9,29.55,NNW,345,1.7,6.0,55,-99.99,,,-99.99,PWS SA v1.10,2013-02-01 05:30:00,
2013-02-01 00:35:00,33.6,19.3,29.55,North,0,0.0,3.0,55,-99.99,,,-99.99,PWS SA v1.10,2013-02-01 05:35:00,
2013-02-01 00:40:00,32.8,20.0,29.55,WSW,252,3.4,6.0,59,-99.99,,,-99.99,PWS SA v1.10,2013-02-01 05:40:00,
2013-02-01 00:45:00,32.6,20.8,29.55,SW,232,1.7,8.0,61,-99.99,,,-99.99,PWS SA v1.10,2013-02-01 05:45:00,
2013-02-01 00:50:00,32.5,21.3,29.55,WNW,295,10.2,10.2,62,-99.99,,,-99.99,PWS SA v1.10,2013-02-01 05:50:00,
2013-02-01 00:55:00,32.2,20.1,29.56,WSW,253,6.8,10.0,61,-99.99,,,-99.99,PWS SA v1.10,2013-02-01 05:55:00,
2013-02-01 01:00:00,32.5,21.4,29.55,WSW,243,5.1,10.0,63,-99.99,,,-99.99,PWS SA v1.10,2013-02-01 06:00:00,
2013-02-01 01:10:00,32.0,20.3,29.56,West,268,1.7,13.0,61,-99.99,,,-99.99,PWS SA v1.10,2013-02-01 06:10:00,
2013-02-01 01:15:00,32.3,20.4,29.56,North,0,0.0,13.0,61,-99.99,,,-99.99,PWS SA v1.10,2013-02-01 06:15:00,
2013-02-01 01:20:00,32.3,19.7,29.56,NNW,333,1.7,8.0,59,-99.99,,,-99.99,PWS SA v1.10,2013-02-01 06:20:00,
2013-02-01 01:25:00,31.7,18.6,29.57,NW,311,3.4,3.4,58,-99.99,,,-99.99,PWS SA v1.10,2013-02-01 06:25:00,
2013-02-01 01:30:00,32.2,19.7,29.57,WSW,253,3.4,3.4,60,-99.99,,,-99.99,PWS SA v1.10,2013-02-01 06:30:00,
2013-02-01 01:35:00,32.2,18.9,29.57,NW,319,6.8,6.8,57,-99.99,,,-99.99,PWS SA v1.10,2013-02-01 06:35:00,
2013-02-01 01:40:00,32.0,19.7,29.57,SW,235,1.7,6.0,59,-99.99,,,-99.99,PWS SA v1.10,2013-02-01 06:40:00,
2013-02-01 01:45:00,32.1,18.4,29.57,North,0,0.0,6.0,56,-99.99,,,-99.99,PWS SA v1.10,2013-02-01 06:45:00,
2013-02-01 01:55:00,31.7,18.6,29.58,West,262,12.0,12.0,57,-99.99,,,-99.99,PWS SA v1.10,2013-02-01 06:55:00,
2013-02-01 02:00:00,31.9,17.8,29.57,West,278,1.7,12.0,55,-99.99,,,-99.99,PWS SA v1.10,2013-02-01 07:00:00,
2013-02-01 02:05:00,32.0,18.0,29.58,North,0,0.0,12.0,55,-99.99,,,-99.99,PWS SA v1.10,2013-02-01 07:05:00,
2013-02-01 02:10:00,31.9,16.9,29.58,West,270,3.4,6.0,53,-99.99,,,-99.99,PWS SA v1.10,2013-02-01 07:10:00,
2013-02-01 02:15:00,31.7,16.0,29.58,WSW,256,3.4,6.0,52,-99.99,,,-99.99,PWS SA v1.10,2013-02-01 07:15:00,
2013-02-01 02:20:00,31.6,16.7,29.59,North,0,0.0,6.0,53,-99.99,,,-99.99,PWS SA v1.10,2013-02-01 07:20:00,
2013-02-01 02:25:00,31.7,16.1,29.59,WSW,248,1.7,5.0,52,-99.99,,,-99.99,PWS SA v1.10,2013-02-01 07:25:00,
2013-02-01 02:30:00,31.9,15.8,29.59,North,0,0.0,5.0,51,-99.99,,,-99.99,PWS SA v1.10,2013-02-01 07:30:00,
2013-02-01 02:40:00,32.4,18.7,29.59,NNW,347,1.7,3.0,56,-99.99,,,-99.99,PWS SA v1.10,2013-02-01 07:40:00,
2013-02-01 02:45:00,32.3,16.1,29.59,North,7,1.7,3.0,50,-99.99,,,-99.99,PWS SA v1.10,2013-02-01 07:45:00,
2013-02-01 02:50:00,32.3,17.4,29.59,North,0,0.0,3.0,53,-99.99,,,-99.99,PWS SA v1.10,2013-02-01 07:50:00,
2013-02-01 02:55:00,31.8,15.4,29.59,WSW,257,1.7,3.0,50,-99.99,,,-99.99,PWS SA v1.10,2013-02-01 07:55:00,
2013-02-01 03:00:00,32.3,15.8,29.59,North,0,0.0,3.0,50,-99.99,,,-99.99,PWS SA v1.10,2013-02-01 08:00:00,
2013-02-01 03:05:00,32.1,16.5,29.60,West,267,1.7,3.0,52,-99.99,,,-99.99,PWS SA v1.10,2013-02-01 08:05:00,
2013-02-01 03:15:00,31.3,13.5,29.60,NNW,341,8.5,10.0,47,-99.99,,,-99.99,PWS SA v1.10,2013-02-01 08:15:00,
2013-02-01 03:20:00,31.1,11.7,29.60,NW,320,5.1,10.0,44,-99.99,,,-99.99,PWS SA v1.10,2013-02-01 08:20:00,
2013-02-01 03:25:00,31.3,14.6,29.60,SW,225,10.2,10.2,49,-99.99,,,-99.99,PWS SA v1.10,2013-02-01 08:25:00,
2013-02-01 03:30:00,31.1,12.9,29.60,NE,37,1.7,10.0,46,-99.99,,,-99.99,PWS SA v1.10,2013-02-01 08:30:00,
2013-02-01 03:35:00,30.9,13.2,29.60,WNW,295,1.7,10.0,47,-99.99,,,-99.99,PWS SA v1.10,2013-02-01 08:35:00,
2013-02-01 03:40:00,30.9,13.8,29.60,WSW,251,6.8,6.8,49,-99.99,,,-99.99,PWS SA v1.10,2013-02-01 08:40:00,
2013-02-01 03:50:00,30.9,14.3,29.61,West,266,1.7,12.0,49,-99.99,,,-99.99,PWS SA v1.10,2013-02-01 08:50:00,
2013-02-01 03:55:00,30.9,14.0,29.61,West,272,5.1,12.0,49,-99.99,,,-99.99,PWS SA v1.10,2013-02-01 08:55:00,
2013-02-01 04:00:00,30.9,14.5,29.62,WSW,243,3.4,10.0,50,-99.99,,,-99.99,PWS SA v1.10,2013-02-01 09:00:00,
2013-02-01 04:05:00,30.7,13.5,29.61,NE,46,3.4,13.0,48,-99.99,,,-99.99,PWS SA v1.10,2013-02-01 09:05:00,
2013-02-01 04:10:00,30.8,14.2,29.62,North,0,0.0,13.0,49,-99.99,,,-99.99,PWS SA v1.10,2013-02-01 09:10:00,
2013-02-01 04:15:00,30.8,13.6,29.62,West,280,3.4,13.0,48,-99.99,,,-99.99,PWS SA v1.10,2013-02-01 09:15:00,
2013-02-01 04:20:00,30.5,13.6,29.62,WNW,293,1.7,6.0,49,-99.99,,,-99.99,PWS SA v1.10,2013-02-01 09:20:00,
2013-02-01 04:25:00,30.7,13.0,29.61,North,0,0.0,6.0,47,-99.99,,,-99.99,PWS SA v1.10,2013-02-01 09:25:00,
2013-02-01 04:30:00,30.5,15.5,29.62,WSW,239,5.1,6.0,53,-99.99,,,-99.99,PWS SA v1.10,2013-02-01 09:30:00,
2013-02-01 04:40:00,30.1,16.6,29.62,WSW,255,3.4,10.0,56,-99.99,,,-99.99,PWS SA v1.10,2013-02-01 09:40:00,
2013-02-01 04:45:00,30.9,18.3,29.62,North,0,0.0,10.0,59,-99.99,,,-99.99,PWS SA v1.10,2013-02-01 09:45:00,
2013-02-01 04:50:00,30.5,17.1,29.62,WSW,248,3.4,10.0,57,-99.99,,,-99.99,PWS SA v1.10,2013-02-01 09:50:00,
2013-02-01 04:55:00,30.0,17.0,29.62,SW,219,1.7,8.0,57,-99.99,,,-99.99,PWS SA v1.10,2013-02-01 09:55:00,
2013-02-01 05:00:00,30.3,17.2,29.63,SW,217,6.8,10.0,57,-99.99,,,-99.99,PWS SA v1.10,2013-02-01 10:00:00,
2013-02-01 05:05:00,29.8,16.9,29.62,WSW,253,6.8,10.0,58,-99.99,,,-99.99,PWS SA v1.10,2013-02-01 10:05:00,
2013-02-01 05:10:00,29.9,16.4,29.62,South,191,3.4,10.0,56,-99.99,,,-99.99,PWS SA v1.10,2013-02-01 10:10:00,
2013-02-01 05:20:00,29.9,17.5,29.63,WSW,253,3.4,5.0,59,-99.99,,,-99.99,PWS SA v1.10,2013-02-01 10:20:00,
2013-02-01 05:25:00,29.4,15.9,29.62,North,0,0.0,15.0,56,-99.99,,,-99.99,PWS SA v1.10,2013-02-01 10:25:00,
2013-02-01 05:30:00,29.3,15.8,29.63,WSW,249,5.1,15.0,57,-99.99,,,-99.99,PWS SA v1.10,2013-02-01 10:30:00,
2013-02-01 05:35:00,29.4,15.5,29.63,West,279,1.7,15.0,55,-99.99,,,-99.99,PWS SA v1.10,2013-02-01 10:35:00,
2013-02-01 05:40:00,29.4,15.0,29.64,SW,230,6.8,10.0,55,-99.99,,,-99.99,PWS SA v1.10,2013-02-01 10:40:00,
2013-02-01 05:45:00,29.4,15.4,29.63,West,262,5.1,12.0,55,-99.99,,,-99.99,PWS SA v1.10,2013-02-01 10:45:00,
2013-02-01 05:55:00,29.1,14.9,29.63,WSW,255,3.4,12.0,55,-99.99,,,-99.99,PWS SA v1.10,2013-02-01 10:55:00,
2013-02-01 06:00:00,29.3,15.0,29.64,North,0,0.0,10.0,55,-99.99,,,-99.99,PWS SA v1.10,2013-02-01 11:00:00,
2013-02-01 06:10:00,28.9,14.9,29.64,WSW,256,3.4,8.0,55,-99.99,,,-99.99,PWS SA v1.10,2013-02-01 11:10:00,
2013-02-01 06:15:00,28.9,14.5,29.65,NW,325,3.4,8.0,54,-99.99,,,-99.99,PWS SA v1.10,2013-02-01 11:15:00,
2013-02-01 06:20:00,28.9,15.0,29.65,WSW,246,5.1,8.0,55,-99.99,,,-99.99,PWS SA v1.10,2013-02-01 11:20:00,
2013-02-01 06:30:00,29.1,15.3,29.65,WSW,254,3.4,10.0,55,-99.99,,,-99.99,PWS SA v1.10,2013-02-01 11:30:00,
2013-02-01 06:35:00,29.0,14.7,29.65,North,0,0.0,10.0,55,-99.99,,,-99.99,PWS SA v1.10,2013-02-01 11:35:00,
2013-02-01 06:40:00,28.8,14.8,29.65,North,0,0.0,8.0,55,-99.99,,,-99.99,PWS SA v1.10,2013-02-01 11:40:00,
2013-02-01 06:50:00,28.9,15.1,29.66,West,260,3.4,10.0,56,-99.99,,,-99.99,PWS SA v1.10,2013-02-01 11:50:00,
2013-02-01 07:00:00,28.8,15.0,29.67,West,280,3.4,3.4,56,-99.99,,,-99.99,PWS SA v1.10,2013-02-01 12:00:00,
2013-02-01 07:05:00,28.6,15.0,29.68,SW,225,1.7,5.0,56,-99.99,,,-99.99,PWS SA v1.10,2013-02-01 12:05:00,
2013-02-01 07:10:00,28.9,15.1,29.68,North,0,0.0,5.0,56,-99.99,,,-99.99,PWS SA v1.10,2013-02-01 12:10:00,
2013-02-01 07:15:00,28.6,14.7,29.68,SSW,207,3.4,5.0,55,-99.99,,,-99.99,PWS SA v1.10,2013-02-01 12:15:00,
2013-02-01 07:20:00,29.0,14.9,29.68,WSW,254,3.4,5.0,55,-99.99,,,-99.99,PWS SA v1.10,2013-02-01 12:20:00,
2013-02-01 07:25:00,28.9,14.2,29.69,WSW,240,3.4,5.0,54,-99.99,,,-99.99,PWS SA v1.10,2013-02-01 12:25:00,
2013-02-01 07:30:00,28.9,14.5,29.69,West,259,5.1,5.1,54,-99.99,,,-99.99,PWS SA v1.10,2013-02-01 12:30:00,
2013-02-01 07:35:00,29.3,14.3,29.69,WSW,254,1.7,5.0,53,-99.99,,,-99.99,PWS SA v1.10,2013-02-01 12:35:00,
2013-02-01 07:40:00,29.1,14.2,29.70,NNW,336,3.4,5.0,54,-99.99,,,-99.99,PWS SA v1.10,2013-02-01 12:40:00,
2013-02-01 07:45:00,29.1,14.8,29.70,West,269,6.8,6.8,55,-99.99,,,-99.99,PWS SA v1.10,2013-02-01 12:45:00,
2013-02-01 07:50:00,28.9,15.1,29.71,West,267,5.1,6.0,55,-99.99,,,-99.99,PWS SA v1.10,2013-02-01 12:50:00,
2013-02-01 07:55:00,28.8,14.5,29.71,WNW,290,1.7,6.0,54,-99.99,,,-99.99,PWS SA v1.10,2013-02-01 12:55:00,
2013-02-01 08:00:00,29.0,14.5,29.71,WSW,244,17.1,17.1,54,-99.99,,,-99.99,PWS SA v1.10,2013-02-01 13:00:00,
2013-02-01 08:05:00,29.3,15.5,29.72,West,262,1.7,17.0,56,-99.99,,,-99.99,PWS SA v1.10,2013-02-01 13:05:00,
2013-02-01 08:10:00,29.3,16.0,29.71,WNW,290,6.8,17.0,57,-99.99,,,-99.99,PWS SA v1.10,2013-02-01 13:10:00,
2013-02-01 08:15:00,29.1,15.0,29.72,West,262,3.4,8.0,55,-99.99,,,-99.99,PWS SA v1.10,2013-02-01 13:15:00,
2013-02-01 08:20:00,28.7,15.6,29.73,SSW,201,3.4,8.0,57,-99.99,,,-99.99,PWS SA v1.10,2013-02-01 13:20:00,
2013-02-01 08:25:00,29.4,16.3,29.73,SSW,213,6.8,8.0,58,-99.99,,,-99.99,PWS SA v1.10,2013-02-01 13:25:00,
2013-02-01 08:30:00,29.3,16.1,29.73,WNW,284,6.8,8.0,58,-99.99,,,-99.99,PWS SA v1.10,2013-02-01 13:30:00,
2013-02-01 08:35:00,29.6,16.5,29.73,WNW,302,10.2,10.2,58,-99.99,,,-99.99,PWS SA v1.10,2013-02-01 13:35:00,
2013-02-01 08:40:00,29.4,16.1,29.73,SSW,192,3.4,10.0,57,-99.99,,,-99.99,PWS SA v1.10,2013-02-01 13:40:00,
2013-02-01 08:45:00,29.9,16.6,29.73,WNW,286,1.7,10.0,57,-99.99,,,-99.99,PWS SA v1.10,2013-02-01 13:45:00,
2013-02-01 08:50:00,29.8,15.0,29.74,NNE,16,3.4,8.0,53,-99.99,,,-99.99,PWS SA v1.10,2013-02-01 13:50:00,
2013-02-01 08:55:00,29.7,14.5,29.74,West,281,1.7,8.0,52,-99.99,,,-99.99,PWS SA v1.10,2013-02-01 13:55:00,
2013-02-01 09:00:00,30.5,14.4,29.73,NW,308,1.7,8.0,51,-99.99,,,-99.99,PWS SA v1.10,2013-02-01 14:00:00,
2013-02-01 09:05:00,30.8,15.5,29.74,SW,227,3.4,8.0,52,-99.99,,,-99.99,PWS SA v1.10,2013-02-01 14:05:00,
2013-02-01 09:10:00,31.0,15.7,29.74,WSW,256,1.7,8.0,52,-99.99,,,-99.99,PWS SA v1.10,2013-02-01 14:10:00,
2013-02-01 09:20:00,31.2,16.0,29.74,West,262,5.1,10.0,53,-99.99,,,-99.99,PWS SA v1.10,2013-02-01 14:20:00,
2013-02-01 09:25:00,31.1,14.6,29.74,WSW,258,3.4,10.0,50,-99.99,,,-99.99,PWS SA v1.10,2013-02-01 14:25:00,
2013-02-01 09:30:00,30.9,15.5,29.74,West,272,12.0,12.0,52,-99.99,,,-99.99,PWS SA v1.10,2013-02-01 14:30:00,
2013-02-01 09:35:00,30.5,14.9,29.75,West,269,13.7,13.7,52,-99.99,,,-99.99,PWS SA v1.10,2013-02-01 14:35:00,
2013-02-01 09:40:00,31.0,15.4,29.74,NNW,345,1.7,13.0,52,-99.99,,,-99.99,PWS SA v1.10,2013-02-01 14:40:00,
2013-02-01 09:45:00,31.2,16.2,29.75,SSE,147,3.4,13.0,53,-99.99,,,-99.99,PWS SA v1.10,2013-02-01 14:45:00,
2013-02-01 09:50:00,30.9,15.1,29.75,West,280,5.1,8.0,51,-99.99,,,-99.99,PWS SA v1.10,2013-02-01 14:50:00,
2013-02-01 09:55:00,31.7,15.9,29.75,WSW,248,6.8,8.0,51,-99.99,,,-99.99,PWS SA v1.10,2013-02-01 14:55:00,
2013-02-01 10:00:00,31.7,16.0,29.74,West,273,3.4,8.0,51,-99.99,,,-99.99,PWS SA v1.10,2013-02-01 15:00:00,
2013-02-01 10:05:00,32.0,14.3,29.74,NNW,328,5.1,8.0,47,-99.99,,,-99.99,PWS SA v1.10,2013-02-01 15:05:00,
2013-02-01 10:10:00,31.9,13.1,29.73,WNW,291,5.1,8.0,45,-99.99,,,-99.99,PWS SA v1.10,2013-02-01 15:10:00,
2013-02-01 10:15:00,32.3,12.0,29.72,ENE,63,5.1,15.0,42,-99.99,,,-99.99,PWS SA v1.10,2013-02-01 15:15:00,
2013-02-01 10:20:00,31.2,11.2,29.72,NNE,23,6.8,15.0,43,-99.99,,,-99.99,PWS SA v1.10,2013-02-01 15:20:00,
2013-02-01 10:25:00,31.1,8.6,29.73,West,269,5.1,15.0,38,-99.99,,,-99.99,PWS SA v1.10,2013-02-01 15:25:00,
2013-02-01 10:30:00,30.9,9.3,29.73,West,277,8.5,10.0,40,-99.99,,,-99.99,PWS SA v1.10,2013-02-01 15:30:00,
2013-02-01 10:35:00,30.5,9.6,29.73,WSW,252,13.7,13.7,41,-99.99,,,-99.99,PWS SA v1.10,2013-02-01 15:35:00,
2013-02-01 10:40:00,30.8,9.7,29.73,WNW,283,5.1,13.0,40,-99.99,,,-99.99,PWS SA v1.10,2013-02-01 15:40:00,
2013-02-01 10:45:00,31.5,9.0,29.73,NW,319,5.1,13.0,39,-99.99,,,-99.99,PWS SA v1.10,2013-02-01 15:45:00,
2013-02-01 10:50:00,31.9,10.6,29.74,WNW,296,3.4,11.0,40,-99.99,,,-99.99,PWS SA v1.10,2013-02-01 15:50:00,
2013-02-01 10:55:00,32.5,9.9,29.75,WSW,240,8.5,8.5,38,-99.99,,,-99.99,PWS SA v1.10,2013-02-01 15:55:00,
2013-02-01 11:00:00,32.2,9.7,29.74,NNW,329,3.4,13.0,38,-99.99,,,-99.99,PWS SA v1.10,2013-02-01 16:00:00,
2013-02-01 11:05:00,32.4,8.8,29.74,SW,219,5.1,13.0,37,-99.99,,,-99.99,PWS SA v1.10,2013-02-01 16:05:00,
2013-02-01 11:10:00,32.1,9.8,29.74,North,349,3.4,13.0,39,-99.99,,,-99.99,PWS SA v1.10,2013-02-01 16:10:00,
2013-02-01 11:15:00,32.3,9.1,29.74,SSE,161,3.4,8.0,37,-99.99,,,-99.99,PWS SA v1.10,2013-02-01 16:15:00,
2013-02-01 11:20:00,32.4,9.7,29.73,West,273,3.4,15.0,38,-99.99,,,-99.99,PWS SA v1.10,2013-02-01 16:20:00,
2013-02-01 11:25:00,32.9,10.8,29.74,SSW,213,3.4,15.0,39,-99.99,,,-99.99,PWS SA v1.10,2013-02-01 16:25:00,
2013-02-01 11:30:00,33.4,9.8,29.74,West,264,3.4,15.0,37,-99.99,,,-99.99,PWS SA v1.10,2013-02-01 16:30:00,
2013-02-01 11:35:00,33.6,11.1,29.73,West,279,3.4,8.0,38,-99.99,,,-99.99,PWS SA v1.10,2013-02-01 16:35:00,
2013-02-01 11:40:00,34.1,10.6,29.73,WNW,296,5.1,8.0,37,-99.99,,,-99.99,PWS SA v1.10,2013-02-01 16:40:00,
2013-02-01 11:45:00,34.0,11.2,29.73,WSW,257,5.1,8.0,38,-99.99,,,-99.99,PWS SA v1.10,2013-02-01 16:45:00,
2013-02-01 11:50:00,33.8,10.5,29.74,North,10,5.1,13.0,37,-99.99,,,-99.99,PWS SA v1.10,2013-02-01 16:50:00,
2013-02-01 11:55:00,33.4,10.9,29.73,West,268,5.1,13.0,38,-99.99,,,-99.99,PWS SA v1.10,2013-02-01 16:55:00,
2013-02-01 12:00:00,32.9,9.9,29.73,WNW,286,12.0,13.0,38,-99.99,,,-99.99,PWS SA v1.10,2013-02-01 17:00:00,
2013-02-01 12:05:00,33.0,9.1,29.73,North,358,6.8,12.0,36,-99.99,,,-99.99,PWS SA v1.10,2013-02-01 17:05:00,
2013-02-01 12:10:00,32.6,9.5,29.72,West,266,5.1,12.0,37,-99.99,,,-99.99,PWS SA v1.10,2013-02-01 17:10:00,
2013-02-01 12:15:00,33.8,11.9,29.72,WSW,254,1.7,6.0,40,-99.99,,,-99.99,PWS SA v1.10,2013-02-01 17:15:00,
2013-02-01 12:20:00,33.3,10.0,29.71,NNW,327,8.5,8.5,37,-99.99,,,-99.99,PWS SA v1.10,2013-02-01 17:20:00,
2013-02-01 12:25:00,33.5,9.7,29.71,NW,307,6.8,8.0,36,-99.99,,,-99.99,PWS SA v1.10,2013-02-01 17:25:00,
2013-02-01 12:30:00,33.1,10.0,29.71,WNW,285,8.5,8.5,37,-99.99,,,-99.99,PWS SA v1.10,2013-02-01 17:30:00,
2013-02-01 12:40:00,33.4,10.1,29.70,NW,321,6.8,12.0,37,-99.99,,,-99.99,PWS SA v1.10,2013-02-01 17:40:00,
2013-02-01 12:45:00,32.8,10.1,29.69,NNE,12,5.1,13.0,38,-99.99,,,-99.99,PWS SA v1.10,2013-02-01 17:45:00,
2013-02-01 12:50:00,33.5,10.3,29.69,WSW,239,3.4,13.0,37,-99.99,,,-99.99,PWS SA v1.10,2013-02-01 17:50:00,
2013-02-01 12:55:00,33.1,10.6,29.69,WSW,251,10.2,13.0,39,-99.99,,,-99.99,PWS SA v1.10,2013-02-01 17:55:00,
2013-02-01 13:00:00,33.4,10.3,29.69,NNW,332,6.8,10.0,38,-99.99,,,-99.99,PWS SA v1.10,2013-02-01 18:00:00,
2013-02-01 13:05:00,33.8,10.3,29.70,NW,320,5.1,10.0,36,-99.99,,,-99.99,PWS SA v1.10,2013-02-01 18:05:00,
2013-02-01 13:10:00,33.8,9.7,29.71,WNW,291,3.4,6.0,36,-99.99,,,-99.99,PWS SA v1.10,2013-02-01 18:10:00,
2013-02-01 13:15:00,33.3,8.0,29.71,NW,319,5.1,13.0,34,-99.99,,,-99.99,PWS SA v1.10,2013-02-01 18:15:00,
2013-02-01 13:25:00,32.5,8.1,29.71,WNW,300,6.8,13.0,35,-99.99,,,-99.99,PWS SA v1.10,2013-02-01 18:25:00,
2013-02-01 13:30:00,33.5,10.2,29.72,North,0,0.0,12.0,37,-99.99,,,-99.99,PWS SA v1.10,2013-02-01 18:30:00,
2013-02-01 13:35:00,32.3,8.8,29.71,North,360,3.4,12.0,36,-99.99,,,-99.99,PWS SA v1.10,2013-02-01 18:35:00,
2013-02-01 13:40:00,33.0,10.0,29.71,West,268,3.4,12.0,38,-99.99,,,-99.99,PWS SA v1.10,2013-02-01 18:40:00,
2013-02-01 13:45:00,32.8,10.8,29.72,West,268,5.1,12.0,39,-99.99,,,-99.99,PWS SA v1.10,2013-02-01 18:45:00,
2013-02-01 13:50:00,33.2,10.5,29.72,NNW,340,5.1,10.0,38,-99.99,,,-99.99,PWS SA v1.10,2013-02-01 18:50:00,
2013-02-01 13:55:00,33.4,10.9,29.72,WNW,292,6.8,6.8,38,-99.99,,,-99.99,PWS SA v1.10,2013-02-01 18:55:00,
2013-02-01 14:00:00,33.5,11.0,29.72,NW,320,8.5,8.5,38,-99.99,,,-99.99,PWS SA v1.10,2013-02-01 19:00:00,
2013-02-01 14:05:00,32.3,8.0,29.72,NW,326,13.7,13.7,35,-99.99,,,-99.99,PWS SA v1.10,2013-02-01 19:05:00,
2013-02-01 14:10:00,32.6,10.0,29.72,NW,316,3.4,13.0,38,-99.99,,,-99.99,PWS SA v1.10,2013-02-01 19:10:00,
2013-02-01 14:15:00,32.4,8.6,29.72,NE,45,6.8,13.0,36,-99.99,,,-99.99,PWS SA v1.10,2013-02-01 19:15:00,
2013-02-01 14:20:00,32.2,8.8,29.72,South,170,11.9,11.9,37,-99.99,,,-99.99,PWS SA v1.10,2013-02-01 19:20:00,
2013-02-01 14:25:00,32.1,8.6,29.73,North,354,3.4,11.0,36,-99.99,,,-99.99,PWS SA v1.10,2013-02-01 19:25:00,
2013-02-01 14:30:00,31.6,7.9,29.73,North,353,3.4,11.0,36,-99.99,,,-99.99,PWS SA v1.10,2013-02-01 19:30:00,
2013-02-01 14:35:00,31.6,7.4,29.73,NW,326,10.2,10.2,35,-99.99,,,-99.99,PWS SA v1.10,2013-02-01 19:35:00,
2013-02-01 14:40:00,31.5,7.5,29.73,West,278,3.4,10.0,36,-99.99,,,-99.99,PWS SA v1.10,2013-02-01 19:40:00,
2013-02-01 14:45:00,31.7,8.8,29.74,NE,41,10.2,10.2,38,-99.99,,,-99.99,PWS SA v1.10,2013-02-01 19:45:00,
2013-02-01 14:50:00,32.1,9.8,29.75,WNW,292,6.8,10.0,39,-99.99,,,-99.99,PWS SA v1.10,2013-02-01 19:50:00,
2013-02-01 14:55:00,32.4,10.0,29.74,NW,312,3.4,10.0,39,-99.99,,,-99.99,PWS SA v1.10,2013-02-01 19:55:00,
2013-02-01 15:00:00,32.2,9.8,29.75,NNW,332,6.8,6.8,38,-99.99,,,-99.99,PWS SA v1.10,2013-02-01 20:00:00,
2013-02-01 15:05:00,32.8,9.9,29.75,North,0,0.0,6.0,38,-99.99,,,-99.99,PWS SA v1.10,2013-02-01 20:05:00,
2013-02-01 15:15:00,32.2,9.1,29.75,WSW,254,5.1,10.0,37,-99.99,,,-99.99,PWS SA v1.10,2013-02-01 20:15:00,
2013-02-01 15:20:00,32.7,9.3,29.74,North,0,0.0,10.0,37,-99.99,,,-99.99,PWS SA v1.10,2013-02-01 20:20:00,
2013-02-01 15:25:00,32.6,9.7,29.75,NW,313,5.1,8.0,37,-99.99,,,-99.99,PWS SA v1.10,2013-02-01 20:25:00,
2013-02-01 15:30:00,32.5,9.5,29.75,NW,313,8.5,8.5,37,-99.99,,,-99.99,PWS SA v1.10,2013-02-01 20:30:00,
2013-02-01 15:35:00,33.2,10.6,29.75,North,0,0.0,8.0,38,-99.99,,,-99.99,PWS SA v1.10,2013-02-01 20:35:00,
2013-02-01 15:40:00,32.2,9.0,29.75,WSW,247,8.5,8.5,37,-99.99,,,-99.99,PWS SA v1.10,2013-02-01 20:40:00,
2013-02-01 15:45:00,32.1,9.5,29.76,NNW,329,5.1,8.0,38,-99.99,,,-99.99,PWS SA v1.10,2013-02-01 20:45:00,
2013-02-01 15:50:00,31.7,10.2,29.76,NW,324,3.4,8.0,40,-99.99,,,-99.99,PWS SA v1.10,2013-02-01 20:50:00,
2013-02-01 15:55:00,31.7,10.5,29.76,NW,324,6.8,6.8,41,-99.99,,,-99.99,PWS SA v1.10,2013-02-01 20:55:00,
2013-02-01 16:00:00,31.7,9.8,29.77,SW,231,13.7,13.7,40,-99.99,,,-99.99,PWS SA v1.10,2013-02-01 21:00:00,
2013-02-01 16:05:00,31.7,9.3,29.78,North,350,8.5,13.0,39,-99.99,,,-99.99,PWS SA v1.10,2013-02-01 21:05:00,
2013-02-01 16:10:00,31.6,10.4,29.77,WNW,296,5.1,13.0,40,-99.99,,,-99.99,PWS SA v1.10,2013-02-01 21:10:00,
2013-02-01 16:15:00,31.4,9.8,29.78,NW,311,1.7,8.0,40,-99.99,,,-99.99,PWS SA v1.10,2013-02-01 21:15:00,
2013-02-01 16:20:00,31.2,9.4,29.78,NNE,19,5.1,8.0,39,-99.99,,,-99.99,PWS SA v1.10,2013-02-01 21:20:00,
2013-02-01 16:25:00,31.1,9.9,29.78,ENE,73,5.1,8.0,41,-99.99,,,-99.99,PWS SA v1.10,2013-02-01 21:25:00,
2013-02-01 16:30:00,31.5,11.2,29.79,North,0,0.0,8.0,42,-99.99,,,-99.99,PWS SA v1.10,2013-02-01 21:30:00,
2013-02-01 16:35:00,30.9,10.5,29.79,WNW,303,1.7,8.0,41,-99.99,,,-99.99,PWS SA v1.10,2013-02-01 21:35:00,
2013-02-01 16:40:00,30.7,9.6,29.80,NW,320,5.1,6.0,41,-99.99,,,-99.99,PWS SA v1.10,2013-02-01 21:40:00,
2013-02-01 16:45:00,31.2,10.4,29.80,NNW,329,8.5,8.5,41,-99.99,,,-99.99,PWS SA v1.10,2013-02-01 21:45:00,
2013-02-01 16:50:00,30.8,10.1,29.80,NNW,331,8.5,8.5,41,-99.99,,,-99.99,PWS SA v1.10,2013-02-01 21:50:00,
2013-02-01 16:55:00,30.7,10.1,29.81,WNW,290,1.7,8.0,41,-99.99,,,-99.99,PWS SA v1.10,2013-02-01 21:55:00,
2013-02-01 17:00:00,30.7,10.6,29.81,WNW,288,3.4,10.0,42,-99.99,,,-99.99,PWS SA v1.10,2013-02-01 22:00:00,
2013-02-01 17:05:00,30.4,9.5,29.82,West,262,1.7,10.0,41,-99.99,,,-99.99,PWS SA v1.10,2013-02-01 22:05:00,
2013-02-01 17:10:00,30.4,8.9,29.82,North,351,6.8,10.0,40,-99.99,,,-99.99,PWS SA v1.10,2013-02-01 22:10:00,
2013-02-01 17:15:00,30.7,10.6,29.82,North,0,0.0,6.0,42,-99.99,,,-99.99,PWS SA v1.10,2013-02-01 22:15:00,
2013-02-01 17:20:00,30.6,10.3,29.83,West,269,3.4,6.0,42,-99.99,,,-99.99,PWS SA v1.10,2013-02-01 22:20:00,
2013-02-01 17:25:00,30.9,10.9,29.83,North,0,0.0,6.0,43,-99.99,,,-99.99,PWS SA v1.10,2013-02-01 22:25:00,
2013-02-01 17:30:00,31.1,11.1,29.84,North,0,0.0,6.0,43,-99.99,,,-99.99,PWS SA v1.10,2013-02-01 22:30:00,
2013-02-01 17:35:00,31.2,11.4,29.84,North,0,0.0,6.0,43,-99.99,,,-99.99,PWS SA v1.10,2013-02-01 22:35:00,
2013-02-01 17:40:00,31.3,11.0,29.85,North,0,0.0,3.0,42,-99.99,,,-99.99,PWS SA v1.10,2013-02-01 22:40:00,
2013-02-01 17:45:00,30.8,10.9,29.85,North,350,5.1,5.1,42,-99.99,,,-99.99,PWS SA v1.10,2013-02-01 22:45:00,
2013-02-01 17:50:00,30.8,10.9,29.85,North,0,0.0,5.0,42,-99.99,,,-99.99,PWS SA v1.10,2013-02-01 22:50:00,
2013-02-01 17:55:00,30.1,10.3,29.86,NNW,341,3.4,6.0,43,-99.99,,,-99.99,PWS SA v1.10,2013-02-01 22:55:00,
2013-02-01 18:00:00,30.3,10.5,29.87,North,357,6.8,6.8,43,-99.99,,,-99.99,PWS SA v1.10,2013-02-01 23:00:00,
2013-02-01 18:05:00,29.9,9.7,29.88,WSW,253,3.4,6.0,42,-99.99,,,-99.99,PWS SA v1.10,2013-02-01 23:05:00,
2013-02-01 18:10:00,29.5,9.1,29.87,North,0,0.0,6.0,42,-99.99,,,-99.99,PWS SA v1.10,2013-02-01 23:10:00,
2013-02-01 18:15:00,29.6,9.9,29.88,NNW,334,5.1,6.0,43,-99.99,,,-99.99,PWS SA v1.10,2013-02-01 23:15:00,
2013-02-01 18:20:00,29.5,9.8,29.89,SW,226,6.8,15.0,43,-99.99,,,-99.99,PWS SA v1.10,2013-02-01 23:20:00,
2013-02-01 18:25:00,29.9,9.3,29.89,NNW,333,1.7,15.0,41,-99.99,,,-99.99,PWS SA v1.10,2013-02-01 23:25:00,
2013-02-01 18:30:00,29.7,9.8,29.89,NW,310,1.7,15.0,43,-99.99,,,-99.99,PWS SA v1.10,2013-02-01 23:30:00,
2013-02-01 18:35:00,29.4,8.8,29.90,NNW,335,5.1,8.0,41,-99.99,,,-99.99,PWS SA v1.10,2013-02-01 23:35:00,
2013-02-01 18:40:00,29.9,9.8,29.90,NW,312,10.2,10.2,42,-99.99,,,-99.99,PWS SA v1.10,2013-02-01 23:40:00,
2013-02-01 18:45:00,29.1,9.5,29.90,NNW,332,1.7,10.0,43,-99.99,,,-99.99,PWS SA v1.10,2013-02-01 23:45:00,
2013-02-01 18:50:00,28.9,8.9,29.90,NNW,327,5.1,10.0,42,-99.99,,,-99.99,PWS SA v1.10,2013-02-01 23:50:00,
2013-02-01 18:55:00,29.4,10.1,29.91,North,0,0.0,5.0,44,-99.99,,,-99.99,PWS SA v1.10,2013-02-01 23:55:00,
2013-02-01 19:00:00,29.2,9.5,29.91,North,351,1.7,5.0,43,-99.99,,,-99.99,PWS SA v1.10,2013-02-02 00:00:00,
2013-02-01 19:05:00,29.0,10.0,29.92,WSW,252,1.7,10.0,44,-99.99,,,-99.99,PWS SA v1.10,2013-02-02 00:05:00,
2013-02-01 19:10:00,29.1,9.7,29.91,NW,325,3.4,10.0,44,-99.99,,,-99.99,PWS SA v1.10,2013-02-02 00:10:00,
2013-02-01 19:15:00,29.4,9.9,29.92,NNW,330,5.1,10.0,43,-99.99,,,-99.99,PWS SA v1.10,2013-02-02 00:15:00,
2013-02-01 19:20:00,28.8,9.7,29.92,NW,324,8.5,8.5,44,-99.99,,,-99.99,PWS SA v1.10,2013-02-02 00:20:00,
2013-02-01 19:25:00,28.9,10.0,29.92,NNW,333,6.8,8.0,45,-99.99,,,-99.99,PWS SA v1.10,2013-02-02 00:25:00,
2013-02-01 19:30:00,29.4,11.4,29.93,North,0,0.0,8.0,46,-99.99,,,-99.99,PWS SA v1.10,2013-02-02 00:30:00,
2013-02-01 19:35:00,28.8,11.2,29.93,West,273,3.4,6.0,47,-99.99,,,-99.99,PWS SA v1.10,2013-02-02 00:35:00,
2013-02-01 19:40:00,29.0,10.7,29.94,NNW,335,6.8,6.8,46,-99.99,,,-99.99,PWS SA v1.10,2013-02-02 00:40:00,
2013-02-01 19:45:00,29.0,10.2,29.93,North,363,1.7,6.0,44,-99.99,,,-99.99,PWS SA v1.10,2013-02-02 00:45:00,
2013-02-01 19:50:00,28.8,10.1,29.94,NNW,329,3.4,6.0,45,-99.99,,,-99.99,PWS SA v1.10,2013-02-02 00:50:00,
2013-02-01 19:55:00,29.0,11.2,29.94,WNW,284,1.7,3.0,47,-99.99,,,-99.99,PWS SA v1.10,2013-02-02 00:55:00,
2013-02-01 20:00:00,28.7,11.5,29.95,NW,319,1.7,5.0,47,-99.99,,,-99.99,PWS SA v1.10,2013-02-02 01:00:00,
2013-02-01 20:05:00,28.3,11.5,29.95,WSW,256,5.1,6.0,48,-99.99,,,-99.99,PWS SA v1.10,2013-02-02 01:05:00,
2013-02-01 20:10:00,28.1,11.9,29.95,NW,304,1.7,6.0,49,-99.99,,,-99.99,PWS SA v1.10,2013-02-02 01:10:00,
2013-02-01 20:15:00,27.6,10.7,29.95,North,0,0.0,6.0,48,-99.99,,,-99.99,PWS SA v1.10,2013-02-02 01:15:00,
2013-02-01 20:20:00,27.8,11.4,29.96,NNE,19,5.1,5.1,49,-99.99,,,-99.99,PWS SA v1.10,2013-02-02 01:20:00,
2013-02-01 20:25:00,27.9,11.0,29.95,NNW,334,6.8,6.8,48,-99.99,,,-99.99,PWS SA v1.10,2013-02-02 01:25:00,
2013-02-01 20:30:00,27.4,10.0,29.96,WNW,291,3.4,12.0,47,-99.99,,,-99.99,PWS SA v1.10,2013-02-02 01:30:00,
2013-02-01 20:35:00,27.1,4.7,29.96,SW,230,8.5,12.0,45,-99.99,,,-99.99,PWS SA v1.10,2013-02-02 01:35:00,
2013-02-01 20:40:00,27.4,9.6,29.96,ENE,59,5.1,12.0,46,-99.99,,,-99.99,PWS SA v1.10,2013-02-02 01:40:00,
2013-02-01 20:45:00,26.9,4.5,29.97,West,265,13.7,17.0,45,-99.99,,,-99.99,PWS SA v1.10,2013-02-02 01:45:00,
2013-02-01 20:50:00,26.9,5.2,29.96,West,276,5.1,17.0,47,-99.99,,,-99.99,PWS SA v1.10,2013-02-02 01:50:00,
2013-02-01 20:55:00,27.3,5.3,29.97,NNW,328,1.7,17.0,46,-99.99,,,-99.99,PWS SA v1.10,2013-02-02 01:55:00,
2013-02-01 21:00:00,26.6,3.6,29.98,North,0,0.0,6.0,44,-99.99,,,-99.99,PWS SA v1.10,2013-02-02 02:00:00,
2013-02-01 21:05:00,26.8,4.5,29.98,North,0,0.0,6.0,46,-99.99,,,-99.99,PWS SA v1.10,2013-02-02 02:05:00,
2013-02-01 21:10:00,26.7,3.9,29.98,NNW,330,5.1,12.0,45,-99.99,,,-99.99,PWS SA v1.10,2013-02-02 02:10:00,
2013-02-01 21:20:00,26.2,3.8,29.99,SW,230,5.1,12.0,45,-99.99,,,-99.99,PWS SA v1.10,2013-02-02 02:20:00,
2013-02-01 21:25:00,25.8,2.6,29.99,NW,316,5.1,5.1,44,-99.99,,,-99.99,PWS SA v1.10,2013-02-02 02:25:00,
2013-02-01 21:30:00,25.7,2.7,29.98,WNW,293,5.1,8.0,44,-99.99,,,-99.99,PWS SA v1.10,2013-02-02 02:30:00,
2013-02-01 21:35:00,25.9,2.7,29.99,NE,55,1.7,8.0,44,-99.99,,,-99.99,PWS SA v1.10,2013-02-02 02:35:00,
2013-02-01 21:40:00,25.6,2.9,29.99,West,277,3.4,10.0,45,-99.99,,,-99.99,PWS SA v1.10,2013-02-02 02:40:00,
2013-02-01 21:45:00,25.5,2.8,29.99,NW,312,1.7,10.0,45,-99.99,,,-99.99,PWS SA v1.10,2013-02-02 02:45:00,
2013-02-01 21:50:00,25.5,3.1,29.99,WNW,292,3.4,10.0,45,-99.99,,,-99.99,PWS SA v1.10,2013-02-02 02:50:00,
2013-02-01 21:55:00,26.1,4.0,29.99,NNW,342,3.4,8.0,46,-99.99,,,-99.99,PWS SA v1.10,2013-02-02 02:55:00,
2013-02-01 22:00:00,25.9,3.6,29.99,SW,236,3.4,5.0,45,-99.99,,,-99.99,PWS SA v1.10,2013-02-02 03:00:00,
2013-02-01 22:05:00,25.6,3.1,30.00,NNW,336,3.4,3.4,45,-99.99,,,-99.99,PWS SA v1.10,2013-02-02 03:05:00,
2013-02-01 22:10:00,25.5,3.9,30.00,NW,304,5.1,8.0,47,-99.99,,,-99.99,PWS SA v1.10,2013-02-02 03:10:00,
2013-02-01 22:15:00,25.0,3.6,30.01,WSW,253,1.7,10.0,47,-99.99,,,-99.99,PWS SA v1.10,2013-02-02 03:15:00,
2013-02-01 22:20:00,24.9,2.3,30.00,NW,324,8.5,10.0,45,-99.99,,,-99.99,PWS SA v1.10,2013-02-02 03:20:00,
2013-02-01 22:25:00,25.1,3.0,30.01,North,0,0.0,10.0,46,-99.99,,,-99.99,PWS SA v1.10,2013-02-02 03:25:00,
2013-02-01 22:30:00,24.8,1.7,30.01,NE,44,8.5,10.0,44,-99.99,,,-99.99,PWS SA v1.10,2013-02-02 03:30:00,
2013-02-01 22:35:00,25.3,3.0,30.00,NW,323,1.7,8.0,45,-99.99,,,-99.99,PWS SA v1.10,2013-02-02 03:35:00,
2013-02-01 22:40:00,25.1,3.5,30.01,WSW,242,8.5,8.5,47,-99.99,,,-99.99,PWS SA v1.10,2013-02-02 03:40:00,
2013-02-01 22:45:00,25.2,3.5,30.02,NNW,348,1.7,8.0,47,-99.99,,,-99.99,PWS SA v1.10,2013-02-02 03:45:00,
2013-02-01 22:50:00,25.4,3.9,30.02,North,0,0.0,8.0,47,-99.99,,,-99.99,PWS SA v1.10,2013-02-02 03:50:00,
2013-02-01 22:55:00,25.3,3.2,30.01,WSW,249,3.4,6.0,46,-99.99,,,-99.99,PWS SA v1.10,2013-02-02 03:55:00,
2013-02-01 23:00:00,24.8,2.8,30.02,West,281,5.1,6.0,46,-99.99,,,-99.99,PWS SA v1.10,2013-02-02 04:00:00,
2013-02-01 23:05:00,24.7,3.3,30.02,WSW,243,5.1,6.0,47,-99.99,,,-99.99,PWS SA v1.10,2013-02-02 04:05:00,
2013-02-01 23:10:00,24.4,2.7,30.02,West,268,8.5,8.5,47,-99.99,,,-99.99,PWS SA v1.10,2013-02-02 04:10:00,
2013-02-01 23:15:00,24.4,3.6,30.02,WSW,257,6.8,8.0,48,-99.99,,,-99.99,PWS SA v1.10,2013-02-02 04:15:00,
2013-02-01 23:20:00,24.8,3.4,30.03,South,188,3.4,8.0,47,-99.99,,,-99.99,PWS SA v1.10,2013-02-02 04:20:00,
2013-02-01 23:25:00,25.2,4.7,30.02,West,265,3.4,8.0,49,-99.99,,,-99.99,PWS SA v1.10,2013-02-02 04:25:00,
2013-02-01 23:30:00,25.2,3.8,30.02,North,0,0.0,5.0,47,-99.99,,,-99.99,PWS SA v1.10,2013-02-02 04:30:00,
2013-02-01 23:35:00,24.5,3.3,30.02,SW,225,1.7,5.0,48,-99.99,,,-99.99,PWS SA v1.10,2013-02-02 04:35:00,
2013-02-01 23:40:00,23.9,2.8,30.03,West,278,1.7,6.0,48,-99.99,,,-99.99,PWS SA v1.10,2013-02-02 04:40:00,
2013-02-01 23:45:00,23.9,2.4,30.03,NNW,340,3.4,6.0,47,-99.99,,,-99.99,PWS SA v1.10,2013-02-02 04:45:00,
2013-02-01 23:50:00,23.9,2.7,30.03,West,267,1.7,8.0,48,-99.99,,,-99.99,PWS SA v1.10,2013-02-02 04:50:00,
2013-02-01 23:55:00,24.2,2.5,30.03,SW,217,1.7,8.0,47,-99.99,,,-99.99,PWS SA v1.10,2013-02-02 04:55:00,